This is the latest recevied weather packets stored in our database for station/object F4JFI-13. If no packets are shown the sender has not sent any weather packets the latest 10 day(s).
| Time | Temp. | Humidity | Pressure | Rain* | Wind** | Luminosity | Snow |
|---|---|---|---|---|---|---|---|
| 1777749728 | 14.44° C | 90% | 1013.6 hPa | - | - | - | - |
| 1777749128 | 14.44° C | 88% | 1013.6 hPa | - | - | - | - |
| 1777748528 | 15.56° C | 88% | 1013.8 hPa | - | - | - | - |
| 1777747928 | 15.56° C | 88% | 1013.8 hPa | - | - | - | - |
| 1777747329 | 15.56° C | 84% | 1014 hPa | - | - | - | - |
| 1777746729 | 16.67° C | 82% | 1013.8 hPa | - | - | - | - |
| 1777746137 | 18.89° C | 76% | 1013.8 hPa | - | - | - | - |
| 1777745528 | 20° C | 68% | 1012.6 hPa | - | - | - | - |
| 1777744928 | 22.22° C | 50% | 1012.4 hPa | - | - | - | - |
| 1777744328 | 22.22° C | 50% | 1011.8 hPa | - | - | - | - |
| 1777743728 | 22.22° C | 48% | 1011.4 hPa | - | - | - | - |
| 1777743128 | 22.22° C | 52% | 1011.4 hPa | - | - | - | - |
| 1777742528 | 23.33° C | 52% | 1011.4 hPa | - | - | - | - |
| 1777741928 | 23.33° C | 50% | 1011.4 hPa | - | - | - | - |
| 1777741328 | 23.33° C | 50% | 1011.4 hPa | - | - | - | - |
| 1777740729 | 23.33° C | 50% | 1011.4 hPa | - | - | - | - |
| 1777740129 | 24.44° C | 50% | 1011.2 hPa | - | - | - | - |
| 1777739529 | 24.44° C | 50% | 1011.4 hPa | - | - | - | - |
| 1777738928 | 24.44° C | 48% | 1011.4 hPa | - | - | - | - |
| 1777738328 | 24.44° C | 50% | 1011.8 hPa | - | - | - | - |
| 1777737728 | 24.44° C | 50% | 1011.8 hPa | - | - | - | - |
| 1777737128 | 24.44° C | 48% | 1012 hPa | - | - | - | - |
| 1777736528 | 24.44° C | 50% | 1012.2 hPa | - | - | - | - |
| 1777735928 | 24.44° C | 52% | 1012.4 hPa | - | - | - | - |
| 1777735332 | 24.44° C | 50% | 1012.4 hPa | - | - | - | - |
* Rain since midnight (hover to see other rain measurements)
** Current wind speed in m/s (hover to see current wind gust speed)